Kones Corner, South Dakota
Current Conditions -  °F | °C
As of 8:53 PM on Saturday 22 Nov 2014 (Local Time) from KATY Reporting Station
Clear Clear  
Wind Chill: 29°   Ceiling: Unl
Heat Index: 35°   Visibility: 8mi
Dew Point: 32°   Wind: 8mph
Humidity: 89%   Direction: 170°S
Pressure: 29.4"   Gusts: NA
Location:  44.7326°N, 97.0258°W
Report Text: KATY 230253Z AUTO 17007KT 8SM CLR 02/00 A2940 RMK AO2 SLP974 T00170000 56005
Loading
Personal Weather Stations






























Interactive Weather Map New forecast layout! Learn more

10-Day Weather Forecast

Advertisements
Track Severe Weather on mobile